YEE weather

Huronia Airport
Midland, Ontario, Canada

Public forecast

Using degrees Celsius for public forecast. Weather courtesy of forecast.io.

METAR (pilot weather report)

Closest report is CFB Borden, 24.7 nm (45.8 km) S. Retrieved 2019/03/26 21:00 UTC (59 minutes ago):

CYBN 262100Z AUTO 36010KT 340V040 9SM CLR 02/M17 A3040 RMK SLP307

TAF (pilot weather forecast)

Closest forecast is CFB Borden, 24.7 nm (45.8 km) S. Retrieved 2019/03/26 18:33 UTC (3 hours ago):

TAF TAF CYBN 261730Z 2618/2706 31010KT P6SM SKC BECMG 2700/2702 VRB03KT SCT250 RMK FCST BASED ON AUTO OBS. NXT FCST BY 270000Z